SCF612 ZBAD-VHHH
Flight info
| Callsign | SCF612 |
|---|---|
| Flight time | N/A |
| Altitude | 32100 |
| Route | OMDEK8M OMDEK W37 OMBEB R473 WYN W18 NLG W23 ZUH R473 SIERA/N0448F321 |
| Aircraft | A388/J-SADE2E3FGHIJ3J4J5M1RWXY/LB1D1 |
Departure
| Time | 2026-04-11 10:23 |
|---|---|
| Airport | Beijing Daxing International Airport (ZBAD) |
Arrival
| Time | N/A |
|---|---|
| Airport | Hong Kong International Airport (VHHH) |
| Time | Latitude | Longitude | Altitude | Speed | Heading |
|---|---|---|---|---|---|
| 2026-04-11 10:23 | 39.28593 | 116.42312 | 8007 ft | 270 kts | 176° |
| 2026-04-11 10:23 | 39.26709 | 116.42604 | 8754 ft | 277 kts | 176° |
| 2026-04-11 10:23 | 39.24784 | 116.42905 | 9586 ft | 281 kts | 176° |
| 2026-04-11 10:24 | 39.22817 | 116.43212 | 10265 ft | 290 kts | 177° |
| 2026-04-11 10:24 | 39.20729 | 116.43532 | 10477 ft | 314 kts | 176° |
| 2026-04-11 10:24 | 39.18487 | 116.43876 | 10679 ft | 335 kts | 176° |
| 2026-04-11 10:24 | 39.16137 | 116.44242 | 10864 ft | 343 kts | 176° |
| 2026-04-11 10:25 | 39.13764 | 116.44616 | 10922 ft | 344 kts | 176° |
| 2026-04-11 10:25 | 39.11383 | 116.44991 | 11133 ft | 346 kts | 176° |
| 2026-04-11 10:25 | 39.08973 | 116.45306 | 11743 ft | 347 kts | 183° |
| 2026-04-11 10:25 | 39.06597 | 116.44866 | 12378 ft | 346 kts | 201° |
| 2026-04-11 10:26 | 39.04435 | 116.43497 | 13000 ft | 347 kts | 218° |
| 2026-04-11 10:26 | 39.02461 | 116.41684 | 13669 ft | 351 kts | 218° |
| 2026-04-11 10:26 | 39.00443 | 116.39870 | 14261 ft | 356 kts | 218° |
| 2026-04-11 10:26 | 38.98401 | 116.38059 | 14875 ft | 358 kts | 218° |
| 2026-04-11 10:27 | 38.96335 | 116.36232 | 15487 ft | 362 kts | 218° |
| 2026-04-11 10:27 | 38.94251 | 116.34389 | 16080 ft | 366 kts | 218° |
| 2026-04-11 10:27 | 38.92144 | 116.32524 | 16667 ft | 370 kts | 218° |
| 2026-04-11 10:27 | 38.90017 | 116.30643 | 17250 ft | 373 kts | 218° |
| 2026-04-11 10:28 | 38.87867 | 116.28740 | 17805 ft | 377 kts | 218° |
| 2026-04-11 10:28 | 38.85693 | 116.26820 | 18356 ft | 381 kts | 218° |
| 2026-04-11 10:28 | 38.83509 | 116.24892 | 18883 ft | 382 kts | 218° |
| 2026-04-11 10:28 | 38.81312 | 116.22957 | 19426 ft | 384 kts | 218° |
| 2026-04-11 10:29 | 38.79102 | 116.21015 | 19925 ft | 386 kts | 218° |
| 2026-04-11 10:29 | 38.76881 | 116.19064 | 20442 ft | 388 kts | 218° |
| 2026-04-11 10:29 | 38.74645 | 116.17102 | 20949 ft | 390 kts | 218° |
| 2026-04-11 10:29 | 38.72399 | 116.15132 | 21426 ft | 393 kts | 218° |
| 2026-04-11 10:30 | 38.70131 | 116.13143 | 21857 ft | 397 kts | 218° |
| 2026-04-11 10:30 | 38.67847 | 116.11143 | 22352 ft | 399 kts | 218° |
| 2026-04-11 10:30 | 38.65467 | 116.09275 | 22834 ft | 405 kts | 211° |
| 2026-04-11 10:30 | 38.62883 | 116.07788 | 23311 ft | 410 kts | 204° |
| 2026-04-11 10:31 | 38.60189 | 116.06536 | 23723 ft | 413 kts | 204° |
| 2026-04-11 10:31 | 38.57529 | 116.05280 | 24157 ft | 414 kts | 205° |
| 2026-04-11 10:31 | 38.54791 | 116.03974 | 24586 ft | 415 kts | 205° |
| 2026-04-11 10:31 | 38.52110 | 116.02692 | 24943 ft | 419 kts | 204° |
| 2026-04-11 10:32 | 38.49376 | 116.01387 | 25372 ft | 420 kts | 205° |
| 2026-04-11 10:32 | 38.46632 | 116.00079 | 25857 ft | 422 kts | 205° |
| 2026-04-11 10:32 | 38.43874 | 115.98766 | 26317 ft | 424 kts | 205° |
| 2026-04-11 10:32 | 38.41106 | 115.97449 | 26816 ft | 426 kts | 205° |
| 2026-04-11 10:33 | 38.38323 | 115.96127 | 27319 ft | 428 kts | 205° |
| 2026-04-11 10:33 | 38.35530 | 115.94801 | 27815 ft | 430 kts | 205° |
| 2026-04-11 10:33 | 38.32712 | 115.93462 | 28257 ft | 434 kts | 205° |
| 2026-04-11 10:33 | 38.29868 | 115.92148 | 28767 ft | 437 kts | 202° |
| 2026-04-11 10:34 | 38.26902 | 115.91159 | 29281 ft | 444 kts | 196° |
| 2026-04-11 10:34 | 38.23825 | 115.90586 | 29781 ft | 450 kts | 191° |
| 2026-04-11 10:34 | 38.20703 | 115.90123 | 30229 ft | 452 kts | 192° |
| 2026-04-11 10:34 | 38.17575 | 115.89641 | 30710 ft | 454 kts | 192° |
| 2026-04-11 10:35 | 38.14437 | 115.89149 | 31173 ft | 455 kts | 192° |
| 2026-04-11 10:35 | 38.11286 | 115.88653 | 31631 ft | 458 kts | 192° |
| 2026-04-11 10:35 | 38.08112 | 115.88154 | 31921 ft | 461 kts | 192° |
| 2026-04-11 10:36 | 38.01615 | 115.87133 | 31966 ft | 483 kts | 192° |
| 2026-04-11 10:36 | 37.94904 | 115.86092 | 31951 ft | 486 kts | 192° |
| 2026-04-11 10:37 | 37.89343 | 115.85235 | 31977 ft | 483 kts | 192° |
| 2026-04-11 10:37 | 37.82668 | 115.84152 | 31968 ft | 484 kts | 192° |
| 2026-04-11 10:38 | 37.75990 | 115.83045 | 31968 ft | 483 kts | 193° |
| 2026-04-11 10:38 | 37.66518 | 115.79395 | 31975 ft | 470 kts | 209° |
| 2026-04-11 10:39 | 37.60561 | 115.75944 | 31972 ft | 471 kts | 208° |
| 2026-04-11 10:39 | 37.54594 | 115.72543 | 31955 ft | 471 kts | 208° |
| 2026-04-11 10:40 | 37.48593 | 115.69130 | 31976 ft | 473 kts | 207° |
| 2026-04-11 10:40 | 37.42585 | 115.65721 | 31976 ft | 473 kts | 207° |
| 2026-04-11 10:41 | 37.36633 | 115.62209 | 31977 ft | 472 kts | 209° |
| 2026-04-11 10:41 | 37.30701 | 115.58638 | 31976 ft | 473 kts | 208° |
| 2026-04-11 10:42 | 37.24748 | 115.55086 | 31976 ft | 474 kts | 208° |
| 2026-04-11 10:42 | 37.18796 | 115.51550 | 31978 ft | 474 kts | 208° |
| 2026-04-11 10:43 | 37.09838 | 115.46242 | 31978 ft | 476 kts | 208° |
| 2026-04-11 10:44 | 37.03855 | 115.42704 | 31980 ft | 475 kts | 208° |
| 2026-04-11 10:44 | 36.97913 | 115.39197 | 31976 ft | 475 kts | 208° |
| 2026-04-11 10:45 | 36.91892 | 115.35649 | 31978 ft | 476 kts | 208° |
| 2026-04-11 10:45 | 36.85944 | 115.32150 | 31978 ft | 475 kts | 208° |
| 2026-04-11 10:46 | 36.79968 | 115.28641 | 31981 ft | 475 kts | 208° |
| 2026-04-11 10:46 | 36.73974 | 115.25125 | 31981 ft | 477 kts | 208° |
| 2026-04-11 10:47 | 36.67965 | 115.21607 | 31981 ft | 477 kts | 208° |
| 2026-04-11 10:47 | 36.61955 | 115.18091 | 31984 ft | 477 kts | 208° |
| 2026-04-11 10:48 | 36.55943 | 115.14579 | 31984 ft | 478 kts | 208° |
| 2026-04-11 10:48 | 36.49910 | 115.11070 | 31984 ft | 479 kts | 208° |
| 2026-04-11 10:49 | 36.43867 | 115.07568 | 31983 ft | 479 kts | 207° |
| 2026-04-11 10:49 | 36.37761 | 115.04254 | 31977 ft | 481 kts | 202° |
| 2026-04-11 10:50 | 36.31242 | 115.02339 | 31987 ft | 484 kts | 191° |
| 2026-04-11 10:50 | 36.24511 | 115.01641 | 31990 ft | 486 kts | 188° |
| 2026-04-11 10:51 | 36.17752 | 115.00952 | 31988 ft | 488 kts | 188° |
| 2026-04-11 10:51 | 36.11020 | 115.00261 | 31986 ft | 489 kts | 188° |
| 2026-04-11 10:52 | 36.04238 | 114.99569 | 31984 ft | 489 kts | 188° |
| 2026-04-11 10:52 | 35.97458 | 114.98879 | 31984 ft | 489 kts | 188° |
| 2026-04-11 10:53 | 35.90720 | 114.98202 | 31988 ft | 480 kts | 190° |
| 2026-04-11 10:53 | 35.84061 | 114.97522 | 31989 ft | 481 kts | 190° |
| 2026-04-11 10:54 | 35.77390 | 114.96843 | 31985 ft | 481 kts | 190° |
| 2026-04-11 10:54 | 35.70718 | 114.96168 | 31978 ft | 480 kts | 190° |
| 2026-04-11 10:55 | 35.64079 | 114.95499 | 31990 ft | 478 kts | 190° |
| 2026-04-11 10:55 | 35.57440 | 114.94829 | 31991 ft | 479 kts | 190° |
| 2026-04-11 10:56 | 35.50802 | 114.94161 | 31995 ft | 479 kts | 190° |
| 2026-04-11 10:56 | 35.44202 | 114.93500 | 31993 ft | 474 kts | 190° |
| 2026-04-11 10:57 | 35.37670 | 114.92844 | 31997 ft | 474 kts | 190° |
| 2026-04-11 10:57 | 35.31087 | 114.92183 | 32000 ft | 475 kts | 190° |
| 2026-04-11 10:58 | 35.24511 | 114.91526 | 31991 ft | 472 kts | 190° |
| 2026-04-11 10:58 | 35.17975 | 114.90875 | 31994 ft | 471 kts | 190° |
| 2026-04-11 10:59 | 35.11437 | 114.90222 | 32006 ft | 471 kts | 190° |
| 2026-04-11 10:59 | 35.04898 | 114.89571 | 31997 ft | 471 kts | 190° |
| 2026-04-11 11:00 | 34.98380 | 114.88925 | 32002 ft | 469 kts | 189° |
| 2026-04-11 11:00 | 34.91878 | 114.88280 | 32004 ft | 469 kts | 189° |
| 2026-04-11 11:01 | 34.85372 | 114.87635 | 32005 ft | 469 kts | 189° |
| 2026-04-11 11:01 | 34.78864 | 114.86991 | 32003 ft | 469 kts | 189° |
| 2026-04-11 11:02 | 34.72363 | 114.86350 | 32000 ft | 469 kts | 189° |
| 2026-04-11 11:02 | 34.65866 | 114.85710 | 32001 ft | 469 kts | 189° |
| 2026-04-11 11:03 | 34.59365 | 114.85070 | 32000 ft | 469 kts | 189° |
| 2026-04-11 11:03 | 34.52824 | 114.84426 | 32000 ft | 473 kts | 188° |
| 2026-04-11 11:04 | 34.46263 | 114.83783 | 32000 ft | 473 kts | 188° |
| 2026-04-11 11:04 | 34.39709 | 114.83142 | 31998 ft | 473 kts | 188° |
| 2026-04-11 11:05 | 34.33149 | 114.82501 | 31998 ft | 472 kts | 188° |
| 2026-04-11 11:05 | 34.26639 | 114.81865 | 31998 ft | 473 kts | 188° |
| 2026-04-11 11:06 | 34.20083 | 114.81226 | 31997 ft | 473 kts | 188° |
| 2026-04-11 11:06 | 34.13534 | 114.80590 | 31997 ft | 472 kts | 188° |
| 2026-04-11 11:07 | 34.06972 | 114.79959 | 31997 ft | 474 kts | 189° |
| 2026-04-11 11:07 | 34.00402 | 114.79327 | 31995 ft | 473 kts | 189° |
| 2026-04-11 11:08 | 33.93847 | 114.78699 | 31995 ft | 472 kts | 189° |
| 2026-04-11 11:08 | 33.87297 | 114.78071 | 31995 ft | 473 kts | 189° |
| 2026-04-11 11:09 | 33.80726 | 114.77435 | 31992 ft | 473 kts | 189° |
| 2026-04-11 11:09 | 33.74172 | 114.76775 | 31992 ft | 473 kts | 189° |
| 2026-04-11 11:10 | 33.67606 | 114.76122 | 31992 ft | 474 kts | 189° |
| 2026-04-11 11:10 | 33.61036 | 114.75521 | 31990 ft | 473 kts | 189° |
| 2026-04-11 11:11 | 33.54473 | 114.74892 | 31984 ft | 473 kts | 190° |
| 2026-04-11 11:11 | 33.47917 | 114.74203 | 31984 ft | 473 kts | 190° |
| 2026-04-11 11:12 | 33.41360 | 114.73553 | 31964 ft | 473 kts | 190° |
| 2026-04-11 11:12 | 33.34791 | 114.72924 | 31981 ft | 473 kts | 190° |
| 2026-04-11 11:13 | 33.28224 | 114.72292 | 31980 ft | 473 kts | 190° |
| 2026-04-11 11:13 | 33.21657 | 114.71659 | 31984 ft | 473 kts | 190° |
| 2026-04-11 11:14 | 33.15094 | 114.71018 | 31984 ft | 475 kts | 191° |
| 2026-04-11 11:14 | 33.08568 | 114.70370 | 31977 ft | 475 kts | 191° |
| 2026-04-11 11:15 | 33.01985 | 114.69721 | 31978 ft | 475 kts | 191° |
| 2026-04-11 11:15 | 32.95395 | 114.69072 | 31973 ft | 475 kts | 191° |
| 2026-04-11 11:16 | 32.88804 | 114.68425 | 31970 ft | 476 kts | 191° |
| 2026-04-11 11:16 | 32.82202 | 114.67792 | 31969 ft | 476 kts | 191° |
| 2026-04-11 11:17 | 32.75601 | 114.67173 | 31974 ft | 476 kts | 191° |
| 2026-04-11 11:17 | 32.69002 | 114.66552 | 31957 ft | 475 kts | 191° |
| 2026-04-11 11:18 | 32.62428 | 114.65933 | 31970 ft | 474 kts | 191° |
| 2026-04-11 11:18 | 32.55856 | 114.65314 | 31968 ft | 474 kts | 191° |
| 2026-04-11 11:19 | 32.49280 | 114.64695 | 31961 ft | 474 kts | 191° |
| 2026-04-11 11:19 | 32.42723 | 114.64082 | 31962 ft | 471 kts | 192° |
| 2026-04-11 11:20 | 32.36209 | 114.63470 | 31959 ft | 469 kts | 192° |
| 2026-04-11 11:20 | 32.29702 | 114.62833 | 31959 ft | 469 kts | 192° |
| 2026-04-11 11:21 | 32.23199 | 114.62196 | 31960 ft | 469 kts | 192° |
| 2026-04-11 11:21 | 32.16703 | 114.61565 | 31955 ft | 467 kts | 192° |
| 2026-04-11 11:22 | 32.10224 | 114.60936 | 31950 ft | 467 kts | 192° |
| 2026-04-11 11:22 | 32.03749 | 114.60307 | 31953 ft | 467 kts | 192° |
| 2026-04-11 11:23 | 31.97256 | 114.59680 | 31912 ft | 468 kts | 193° |
| 2026-04-11 11:23 | 31.90823 | 114.59063 | 31944 ft | 462 kts | 193° |
| 2026-04-11 11:24 | 31.84401 | 114.58440 | 31943 ft | 463 kts | 193° |
| 2026-04-11 11:24 | 31.77971 | 114.57820 | 31936 ft | 464 kts | 193° |
| 2026-04-11 11:25 | 31.71588 | 114.57208 | 31929 ft | 462 kts | 194° |
| 2026-04-11 11:25 | 31.65194 | 114.56595 | 31934 ft | 461 kts | 194° |
| 2026-04-11 11:26 | 31.58806 | 114.55981 | 31920 ft | 461 kts | 194° |
| 2026-04-11 11:26 | 31.53433 | 114.55466 | 31917 ft | 462 kts | 193° |
| 2026-04-11 11:27 | 31.47040 | 114.54855 | 31919 ft | 460 kts | 194° |
| 2026-04-11 11:27 | 31.40647 | 114.54241 | 31906 ft | 461 kts | 194° |
| 2026-04-11 11:28 | 31.34292 | 114.53634 | 31911 ft | 461 kts | 194° |
| 2026-04-11 11:28 | 31.27920 | 114.52917 | 31912 ft | 456 kts | 198° |
| 2026-04-11 11:29 | 31.19010 | 114.49724 | 31908 ft | 436 kts | 212° |
| 2026-04-11 11:29 | 31.13589 | 114.46672 | 31900 ft | 436 kts | 212° |
| 2026-04-11 11:30 | 31.08109 | 114.43632 | 31901 ft | 436 kts | 212° |
| 2026-04-11 11:30 | 31.02623 | 114.40598 | 31897 ft | 437 kts | 212° |
| 2026-04-11 11:31 | 30.97107 | 114.37550 | 31902 ft | 436 kts | 212° |
| 2026-04-11 11:31 | 30.91660 | 114.34543 | 31896 ft | 436 kts | 212° |
| 2026-04-11 11:32 | 30.86080 | 114.31605 | 31902 ft | 437 kts | 211° |
| 2026-04-11 11:32 | 30.80562 | 114.28740 | 31898 ft | 437 kts | 211° |
| 2026-04-11 11:33 | 30.75051 | 114.25766 | 31910 ft | 437 kts | 212° |
| 2026-04-11 11:33 | 30.69550 | 114.22756 | 31906 ft | 437 kts | 212° |
| 2026-04-11 11:34 | 30.64045 | 114.19762 | 31887 ft | 437 kts | 212° |
| 2026-04-11 11:34 | 30.58531 | 114.16774 | 31887 ft | 437 kts | 212° |
| 2026-04-11 11:35 | 30.53026 | 114.13796 | 31868 ft | 436 kts | 212° |
| 2026-04-11 11:35 | 30.47522 | 114.10822 | 31885 ft | 436 kts | 212° |
| 2026-04-11 11:36 | 30.42015 | 114.07849 | 31883 ft | 437 kts | 212° |
| 2026-04-11 11:36 | 30.36505 | 114.04878 | 31875 ft | 438 kts | 212° |
| 2026-04-11 11:37 | 30.30972 | 114.01901 | 31852 ft | 438 kts | 212° |
| 2026-04-11 11:37 | 30.25448 | 113.98932 | 31883 ft | 438 kts | 212° |
| 2026-04-11 11:38 | 30.19926 | 113.95970 | 31877 ft | 438 kts | 212° |
| 2026-04-11 11:38 | 30.14404 | 113.93016 | 31876 ft | 437 kts | 212° |
| 2026-04-11 11:39 | 30.08878 | 113.90063 | 31871 ft | 438 kts | 212° |
| 2026-04-11 11:39 | 30.03389 | 113.87132 | 31881 ft | 437 kts | 212° |
| 2026-04-11 11:40 | 29.97825 | 113.84165 | 31877 ft | 438 kts | 212° |
| 2026-04-11 11:40 | 29.92332 | 113.81243 | 31869 ft | 438 kts | 211° |
| 2026-04-11 11:41 | 29.86490 | 113.78960 | 31870 ft | 450 kts | 202° |
| 2026-04-11 11:41 | 29.80198 | 113.77958 | 31863 ft | 465 kts | 192° |
| 2026-04-11 11:42 | 29.73735 | 113.77542 | 31866 ft | 465 kts | 193° |
| 2026-04-11 11:42 | 29.67280 | 113.77092 | 31863 ft | 464 kts | 193° |
| 2026-04-11 11:43 | 29.60826 | 113.76640 | 31860 ft | 465 kts | 193° |
| 2026-04-11 11:43 | 29.54365 | 113.76189 | 31861 ft | 468 kts | 192° |
| 2026-04-11 11:44 | 29.47882 | 113.75747 | 31856 ft | 465 kts | 192° |
| 2026-04-11 11:44 | 29.41396 | 113.75303 | 31853 ft | 468 kts | 192° |
| 2026-04-11 11:45 | 29.34895 | 113.74856 | 31872 ft | 467 kts | 193° |
| 2026-04-11 11:45 | 29.28413 | 113.74392 | 31852 ft | 469 kts | 192° |
| 2026-04-11 11:46 | 29.21879 | 113.74073 | 31861 ft | 475 kts | 188° |
| 2026-04-11 11:46 | 29.15265 | 113.74293 | 31859 ft | 475 kts | 187° |
| 2026-04-11 11:47 | 29.08656 | 113.74489 | 31858 ft | 475 kts | 188° |
| 2026-04-11 11:47 | 29.02046 | 113.74679 | 31857 ft | 475 kts | 188° |
| 2026-04-11 11:48 | 28.95432 | 113.74871 | 31861 ft | 476 kts | 188° |
| 2026-04-11 11:48 | 28.88809 | 113.75089 | 31862 ft | 476 kts | 187° |
| 2026-04-11 11:49 | 28.82200 | 113.75267 | 31860 ft | 475 kts | 187° |
| 2026-04-11 11:49 | 28.75623 | 113.75439 | 31860 ft | 477 kts | 187° |
| 2026-04-11 11:50 | 28.69052 | 113.75158 | 31866 ft | 471 kts | 192° |
| 2026-04-11 11:50 | 28.62509 | 113.74672 | 31857 ft | 471 kts | 192° |
| 2026-04-11 11:51 | 28.55971 | 113.74192 | 31861 ft | 471 kts | 192° |
| 2026-04-11 11:51 | 28.49427 | 113.73712 | 31838 ft | 472 kts | 192° |
| 2026-04-11 11:52 | 28.42853 | 113.73231 | 31863 ft | 473 kts | 192° |
| 2026-04-11 11:52 | 28.36282 | 113.72753 | 31860 ft | 473 kts | 192° |
| 2026-04-11 11:53 | 28.29714 | 113.72275 | 31859 ft | 473 kts | 192° |
| 2026-04-11 11:53 | 28.23140 | 113.71797 | 31827 ft | 473 kts | 192° |
| 2026-04-11 11:54 | 28.16563 | 113.71316 | 31855 ft | 474 kts | 192° |
| 2026-04-11 11:54 | 28.09989 | 113.70821 | 31855 ft | 473 kts | 192° |
| 2026-04-11 11:55 | 28.03442 | 113.70233 | 31856 ft | 472 kts | 192° |
| 2026-04-11 11:55 | 27.96881 | 113.69636 | 31821 ft | 473 kts | 192° |
| 2026-04-11 11:56 | 27.90315 | 113.69043 | 31855 ft | 474 kts | 192° |
| 2026-04-11 11:56 | 27.83786 | 113.68459 | 31855 ft | 474 kts | 192° |
| 2026-04-11 11:57 | 27.77215 | 113.67875 | 31852 ft | 473 kts | 192° |
| 2026-04-11 11:57 | 27.70646 | 113.67289 | 31852 ft | 474 kts | 192° |
| 2026-04-11 11:58 | 27.64070 | 113.66717 | 31855 ft | 476 kts | 190° |
| 2026-04-11 11:58 | 27.57417 | 113.66566 | 31855 ft | 478 kts | 188° |
| 2026-04-11 11:59 | 27.50767 | 113.66422 | 31853 ft | 477 kts | 189° |
| 2026-04-11 11:59 | 27.44128 | 113.66272 | 31855 ft | 478 kts | 188° |
| 2026-04-11 12:00 | 27.37465 | 113.66126 | 31855 ft | 480 kts | 188° |
| 2026-04-11 12:00 | 27.30781 | 113.65978 | 31852 ft | 481 kts | 188° |
| 2026-04-11 12:01 | 27.24136 | 113.65833 | 31856 ft | 481 kts | 188° |
| 2026-04-11 12:01 | 27.17414 | 113.66128 | 31854 ft | 490 kts | 180° |
| 2026-04-11 12:02 | 27.10672 | 113.67823 | 31859 ft | 501 kts | 173° |
| 2026-04-11 12:02 | 27.03944 | 113.69838 | 31860 ft | 499 kts | 173° |
| 2026-04-11 12:03 | 26.97222 | 113.71818 | 31858 ft | 501 kts | 173° |
| 2026-04-11 12:03 | 26.90473 | 113.73803 | 31863 ft | 501 kts | 173° |
| 2026-04-11 12:04 | 26.83737 | 113.75785 | 31851 ft | 500 kts | 172° |
| 2026-04-11 12:04 | 26.76993 | 113.77768 | 31869 ft | 502 kts | 172° |
| 2026-04-11 12:05 | 26.70235 | 113.79790 | 31867 ft | 503 kts | 171° |
| 2026-04-11 12:05 | 26.63503 | 113.81923 | 31875 ft | 503 kts | 171° |
| 2026-04-11 12:06 | 26.56776 | 113.84044 | 31875 ft | 503 kts | 171° |
| 2026-04-11 12:06 | 26.50032 | 113.86155 | 31878 ft | 503 kts | 171° |
| 2026-04-11 12:07 | 26.43273 | 113.88153 | 31883 ft | 502 kts | 172° |
| 2026-04-11 12:07 | 26.36497 | 113.90086 | 31886 ft | 503 kts | 172° |
| 2026-04-11 12:08 | 26.29726 | 113.92036 | 31896 ft | 501 kts | 172° |
| 2026-04-11 12:08 | 26.22977 | 113.93982 | 31894 ft | 501 kts | 172° |
| 2026-04-11 12:09 | 26.16220 | 113.95930 | 31897 ft | 502 kts | 172° |
| 2026-04-11 12:09 | 26.09453 | 113.97879 | 31897 ft | 502 kts | 172° |
| 2026-04-11 12:10 | 26.02694 | 113.99821 | 31896 ft | 501 kts | 172° |
| 2026-04-11 12:10 | 25.95953 | 114.01796 | 31894 ft | 501 kts | 171° |
| 2026-04-11 12:11 | 25.89212 | 114.03814 | 31899 ft | 502 kts | 171° |
| 2026-04-11 12:11 | 25.82512 | 114.05808 | 31898 ft | 502 kts | 171° |
| 2026-04-11 12:12 | 25.75761 | 114.07810 | 31893 ft | 502 kts | 171° |
| 2026-04-11 12:12 | 25.69007 | 114.09811 | 31899 ft | 502 kts | 171° |
| 2026-04-11 12:13 | 25.62270 | 114.11804 | 31898 ft | 500 kts | 170° |
| 2026-04-11 12:13 | 25.55545 | 114.13787 | 31896 ft | 500 kts | 171° |
| 2026-04-11 12:14 | 25.48819 | 114.15773 | 31888 ft | 501 kts | 170° |
| 2026-04-11 12:14 | 25.43175 | 114.17442 | 31885 ft | 500 kts | 171° |
| 2026-04-11 12:15 | 25.36451 | 114.19420 | 31872 ft | 501 kts | 170° |
| 2026-04-11 12:15 | 25.29752 | 114.21387 | 31893 ft | 502 kts | 170° |
| 2026-04-11 12:16 | 25.23006 | 114.23370 | 31890 ft | 501 kts | 170° |
| 2026-04-11 12:16 | 25.16264 | 114.25349 | 31892 ft | 501 kts | 170° |
| 2026-04-11 12:17 | 25.09455 | 114.26571 | 31891 ft | 491 kts | 183° |
| 2026-04-11 12:17 | 25.02723 | 114.25881 | 31895 ft | 483 kts | 195° |
| 2026-04-11 12:18 | 24.96130 | 114.24411 | 31900 ft | 484 kts | 195° |
| 2026-04-11 12:19 | 24.86220 | 114.22263 | 31901 ft | 484 kts | 195° |
| 2026-04-11 12:19 | 24.79615 | 114.20824 | 31892 ft | 484 kts | 194° |
| 2026-04-11 12:20 | 24.73011 | 114.19390 | 31905 ft | 485 kts | 194° |
| 2026-04-11 12:20 | 24.66383 | 114.17954 | 31913 ft | 484 kts | 194° |
| 2026-04-11 12:21 | 24.59777 | 114.16524 | 31914 ft | 484 kts | 194° |
| 2026-04-11 12:21 | 24.53162 | 114.15094 | 31921 ft | 484 kts | 194° |
| 2026-04-11 12:22 | 24.46539 | 114.13662 | 31921 ft | 485 kts | 194° |
| 2026-04-11 12:22 | 24.39911 | 114.12230 | 31921 ft | 485 kts | 194° |
| 2026-04-11 12:23 | 24.33329 | 114.10687 | 31924 ft | 483 kts | 199° |
| 2026-04-11 12:23 | 24.26855 | 114.08690 | 31922 ft | 483 kts | 199° |
| 2026-04-11 12:24 | 24.20367 | 114.06711 | 31928 ft | 485 kts | 198° |
| 2026-04-11 12:24 | 24.13857 | 114.04733 | 31923 ft | 485 kts | 198° |
| 2026-04-11 12:25 | 24.07346 | 114.02755 | 31928 ft | 486 kts | 198° |
| 2026-04-11 12:25 | 24.00841 | 114.00781 | 31924 ft | 484 kts | 198° |
| 2026-04-11 12:26 | 23.94347 | 113.98809 | 31924 ft | 485 kts | 198° |